Alzada, Montana
Current Conditions -  °F | °C
As of 4:55 AM on Sunday 25 Jan 2015 (Local Time) from KSPF Reporting Station
Scattered Clouds Scattered Clouds  
Wind Chill: -2°   Ceiling: Unl
Heat Index:   Visibility: 10mi
Dew Point: -7°   Wind: 12mph
Humidity: 52%   Direction: 270°W
Pressure: 30.05"   Gusts: NA
Location:  45.03°N, 104.42°W
Report Text: KSPF 251155Z AUTO 27010KT 10SM SCT120 02/M07 A3005 RMK AO2
Loading
Personal Weather Stations






























Interactive Weather Map New forecast layout! Learn more

10-Day Weather Forecast

Advertisements
Track Severe Weather on mobile